Time;durP1;ratioP1;P1;durP2;ratioP2;P2;SDS_P1;SDS_P2;PMS_P1;PMS_P2;Temp;Humidity;BMP_temperature;BMP_pressure;BME280_temperature;BME280_humidity;BME280_pressure;Samples;Min_cycle;Max_cycle;Signal;HPM_P1;HPM_P2
2022/10/06 00:01:15;;;;;;;7.75;2.90;;;10.70;99.90;;;;;;5016115;28;20208;-82
2022/10/06 00:03:42;;;;;;;3.87;2.77;;;10.70;99.90;;;;;;5033499;28;20684;-82
2022/10/06 00:06:10;;;;;;;6.50;2.38;;;10.60;99.90;;;;;;5033354;28;20271;-82
2022/10/06 00:08:37;;;;;;;3.72;1.88;;;10.60;99.90;;;;;;5032251;28;20180;-82
2022/10/06 00:11:04;;;;;;;5.85;3.13;;;10.60;99.90;;;;;;5032114;28;20696;-82
2022/10/06 00:13:31;;;;;;;3.70;2.40;;;10.60;99.90;;;;;;5033370;28;20184;-82
2022/10/06 00:15:57;;;;;;;3.33;2.58;;;10.60;99.90;;;;;;5031970;28;20656;-83
2022/10/06 00:18:22;;;;;;;4.10;2.20;;;10.60;99.90;;;;;;5032842;28;20180;-82
2022/10/06 00:20:59;;;;;;;3.92;2.40;;;10.60;99.90;;;;;;5033325;28;20173;-82
2022/10/06 00:23:27;;;;;;;2.97;1.90;;;10.50;99.90;;;;;;5032094;28;20210;-82
2022/10/06 00:25:53;;;;;;;4.43;2.47;;;10.50;99.90;;;;;;5032136;28;20538;-82
2022/10/06 00:28:19;;;;;;;2.88;2.45;;;10.50;99.90;;;;;;5033110;28;20176;-82
2022/10/06 00:30:45;;;;;;;4.55;2.80;;;12.20;99.90;;;;;;5027092;28;20178;-82
2022/10/06 00:33:14;;;;;;;8.25;1.90;;;10.50;99.90;;;;;;5011624;28;20324;-82
2022/10/06 00:35:41;;;;;;;2.17;1.90;;;10.60;99.90;;;;;;5012338;28;20177;-82
2022/10/06 00:38:07;;;;;;;3.15;2.03;;;10.60;99.90;;;;;;5013046;28;20552;-82
2022/10/06 00:40:33;;;;;;;2.90;2.03;;;10.50;99.90;;;;;;5013551;28;20181;-82
2022/10/06 00:42:58;;;;;;;2.38;2.10;;;10.60;99.90;;;;;;4995569;28;20258;-82
2022/10/06 00:45:46;;;;;;;1.88;1.77;;;10.50;99.90;;;;;;5012343;28;20640;-82
2022/10/06 00:48:17;;;;;;;5.10;2.87;;;10.50;99.90;;;;;;5013847;28;20165;-82
2022/10/06 00:50:44;;;;;;;3.33;1.70;;;10.50;99.90;;;;;;5017743;28;20241;-82
2022/10/06 00:53:10;;;;;;;4.13;2.57;;;10.40;99.90;;;;;;5016503;28;20181;-82
2022/10/06 00:55:36;;;;;;;3.30;2.60;;;10.40;99.90;;;;;;5018339;28;20184;-82
2022/10/06 00:58:03;;;;;;;4.78;2.47;;;10.40;99.90;;;;;;5018521;28;20260;-82
2022/10/06 01:00:29;;;;;;;3.47;2.08;;;10.40;99.90;;;;;;5038407;28;20177;-81
2022/10/06 01:03:08;;;;;;;9.43;2.47;;;10.40;99.90;;;;;;5037383;28;20200;-81
2022/10/06 01:05:40;;;;;;;4.40;2.47;;;10.40;99.90;;;;;;5037841;28;20551;-81
2022/10/06 01:08:07;;;;;;;6.00;3.23;;;10.40;99.90;;;;;;5032655;28;20161;-82
2022/10/06 01:10:33;;;;;;;3.13;1.90;;;10.40;99.90;;;;;;5016084;28;20211;-82
2022/10/06 01:12:59;;;;;;;3.03;2.33;;;10.40;99.90;;;;;;5017574;28;20607;-83
2022/10/06 01:15:27;;;;;;;2.42;1.75;;;10.40;99.90;;;;;;5036205;28;20233;-82
2022/10/06 01:18:12;;;;;;;3.97;2.20;;;10.40;99.90;;;;;;5036401;28;20240;-81
2022/10/06 01:20:49;;;;;;;3.58;2.20;;;10.40;99.90;;;;;;5037926;28;20252;-83
2022/10/06 01:23:15;;;;;;;2.33;1.73;;;10.30;99.90;;;;;;5017965;28;20592;-82
2022/10/06 01:25:41;;;;;;;3.83;2.77;;;10.40;99.90;;;;;;5015805;28;20654;-81
2022/10/06 01:28:08;;;;;;;2.88;2.10;;;10.40;99.90;;;;;;5016090;28;20184;-81
2022/10/06 01:30:44;;;;;;;3.88;1.80;;;10.30;99.90;;;;;;5015161;28;20177;-80
2022/10/06 01:33:10;;;;;;;3.77;2.37;;;10.30;99.90;;;;;;5015134;28;20232;-81
2022/10/06 01:35:36;;;;;;;3.75;2.53;;;10.30;99.90;;;;;;5016475;28;20621;-81
2022/10/06 01:38:02;;;;;;;6.47;2.07;;;10.30;99.90;;;;;;5015101;28;20186;-83
2022/10/06 01:40:28;;;;;;;3.08;2.67;;;10.20;99.90;;;;;;5016586;28;20184;-81
2022/10/06 01:42:54;;;;;;;4.55;2.20;;;10.30;99.90;;;;;;5015048;28;20546;-81
2022/10/06 01:45:20;;;;;;;3.80;2.20;;;10.20;99.90;;;;;;5014923;28;20189;-81
2022/10/06 01:47:46;;;;;;;2.63;2.10;;;10.20;99.90;;;;;;5016420;28;20257;-81
2022/10/06 01:50:13;;;;;;;5.05;2.53;;;10.20;99.90;;;;;;5016076;28;20247;-81
2022/10/06 01:52:39;;;;;;;4.10;1.90;;;10.20;99.90;;;;;;5014964;28;20594;-81
2022/10/06 01:55:05;;;;;;;5.17;2.10;;;10.10;99.90;;;;;;4998584;28;20224;-81
2022/10/06 01:57:37;;;;;;;7.93;2.53;;;10.10;99.90;;;;;;5016372;28;20185;-80
2022/10/06 02:00:03;;;;;;;3.03;2.60;;;10.20;99.90;;;;;;5015690;28;20161;-81
2022/10/06 02:02:30;;;;;;;4.27;2.40;;;10.20;99.90;;;;;;5015596;28;20179;-81
2022/10/06 02:04:56;;;;;;;4.50;2.63;;;10.20;99.90;;;;;;5016001;28;20666;-81
2022/10/06 02:07:21;;;;;;;3.57;1.97;;;10.20;99.90;;;;;;5015830;28;20247;-81
2022/10/06 02:09:47;;;;;;;2.05;1.85;;;10.20;99.90;;;;;;5016192;28;20533;-80
2022/10/06 02:12:13;;;;;;;2.42;2.10;;;10.20;99.90;;;;;;5015691;28;20177;-81
2022/10/06 02:14:38;;;;;;;2.30;1.98;;;10.20;99.90;;;;;;5015682;28;20193;-80
2022/10/06 02:17:05;;;;;;;3.83;2.58;;;10.20;99.90;;;;;;4998577;28;20622;-80
2022/10/06 02:19:31;;;;;;;8.70;2.37;;;10.20;99.90;;;;;;5015729;28;20189;-81
2022/10/06 02:21:57;;;;;;;4.20;2.10;;;10.10;99.90;;;;;;4998158;28;20269;-81
2022/10/06 02:24:23;;;;;;;3.33;2.40;;;10.10;99.90;;;;;;5014167;28;20200;-80
2022/10/06 02:26:48;;;;;;;3.13;2.33;;;10.10;99.90;;;;;;5015864;28;20243;-80
2022/10/06 02:29:14;;;;;;;3.03;2.13;;;10.00;99.90;;;;;;5015289;28;20630;-81
2022/10/06 02:31:40;;;;;;;2.78;2.28;;;10.00;99.90;;;;;;5013902;28;20235;-80
2022/10/06 02:34:05;;;;;;;4.30;2.10;;;10.00;99.90;;;;;;5015118;28;20189;-81
2022/10/06 02:36:31;;;;;;;3.93;2.53;;;10.00;99.90;;;;;;5015148;28;20506;-81
2022/10/06 02:38:57;;;;;;;6.27;2.43;;;9.90;99.90;;;;;;5015271;28;20236;-81
2022/10/06 02:41:24;;;;;;;4.13;2.33;;;9.90;99.90;;;;;;4997579;28;20193;-81
2022/10/06 02:43:50;;;;;;;4.77;2.57;;;9.90;99.90;;;;;;5015155;28;20299;-81
2022/10/06 02:46:16;;;;;;;2.03;1.83;;;9.80;99.90;;;;;;5015019;28;20239;-81
2022/10/06 02:48:42;;;;;;;2.20;1.80;;;9.80;99.90;;;;;;5013861;28;20280;-81
2022/10/06 02:51:14;;;;;;;3.10;2.57;;;9.80;99.90;;;;;;5015167;28;20199;-81
2022/10/06 02:53:41;;;;;;;5.07;2.23;;;9.70;99.90;;;;;;5015191;28;20181;-81
2022/10/06 02:56:18;;;;;;;4.25;3.00;;;9.70;99.90;;;;;;5015391;28;20180;-81
2022/10/06 02:58:46;;;;;;;3.60;2.87;;;9.70;99.90;;;;;;5015981;28;20189;-81
2022/10/06 03:01:18;;;;;;;7.53;2.67;;;9.70;99.90;;;;;;5015331;28;20208;-81
2022/10/06 03:03:48;;;;;;;4.00;2.57;;;9.60;99.90;;;;;;5016301;28;20201;-81
2022/10/06 03:06:21;;;;;;;4.03;2.07;;;9.60;99.90;;;;;;5019960;28;20181;-85
2022/10/06 03:08:52;;;;;;;5.20;2.60;;;9.60;99.90;;;;;;5018221;28;20279;-80
2022/10/06 03:11:23;;;;;;;3.55;2.20;;;9.60;99.90;;;;;;5013945;28;20626;-82
2022/10/06 03:13:50;;;;;;;4.83;2.03;;;9.50;99.90;;;;;;5014812;28;20626;-80
2022/10/06 03:16:22;;;;;;;3.80;2.33;;;9.50;99.90;;;;;;5014494;28;20189;-80
2022/10/06 03:18:50;;;;;;;3.20;2.30;;;9.50;99.90;;;;;;5014428;28;20248;-80
2022/10/06 03:21:17;;;;;;;3.13;1.93;;;9.50;99.90;;;;;;5013162;28;20188;-82
2022/10/06 03:23:44;;;;;;;3.57;2.23;;;9.50;99.90;;;;;;5014382;28;20205;-80
2022/10/06 03:26:10;;;;;;;4.00;2.37;;;9.50;99.90;;;;;;5013079;28;20192;-80
2022/10/06 03:28:36;;;;;;;4.23;2.13;;;9.60;99.90;;;;;;5013838;28;20673;-80
2022/10/06 03:31:04;;;;;;;2.10;1.83;;;9.60;99.90;;;;;;5014131;28;20217;-80
2022/10/06 03:33:31;;;;;;;2.60;2.10;;;9.60;99.90;;;;;;5014088;28;20188;-81
2022/10/06 03:36:02;;;;;;;2.30;1.87;;;9.60;99.90;;;;;;4996850;28;20657;-81
2022/10/06 03:38:32;;;;;;;2.80;1.60;;;9.60;99.90;;;;;;5014120;28;20209;-81
2022/10/06 03:41:06;;;;;;;3.67;1.87;;;9.70;99.90;;;;;;5014228;28;20177;-81
2022/10/06 03:43:32;;;;;;;2.90;1.67;;;9.70;99.90;;;;;;5014094;28;20263;-81
2022/10/06 03:45:59;;;;;;;5.90;3.13;;;9.70;99.90;;;;;;5012758;28;20552;-80
2022/10/06 03:48:30;;;;;;;8.90;2.43;;;9.70;99.90;;;;;;5013450;28;20178;-81
2022/10/06 03:50:57;;;;;;;4.10;2.07;;;9.80;99.90;;;;;;5013802;28;20181;-81
2022/10/06 03:53:27;;;;;;;2.37;1.80;;;9.70;99.90;;;;;;5012598;28;20247;-81
2022/10/06 03:56:03;;;;;;;3.67;2.13;;;9.70;99.90;;;;;;5014278;28;20185;-81
2022/10/06 03:58:30;;;;;;;2.27;1.70;;;9.80;99.90;;;;;;5013826;28;20173;-81
2022/10/06 04:01:12;;;;;;;2.53;2.13;;;9.70;99.90;;;;;;5013891;28;20213;-81
2022/10/06 04:03:37;;;;;;;3.80;2.27;;;9.80;99.90;;;;;;5013936;28;20335;-81
2022/10/06 04:06:06;;;;;;;4.03;2.23;;;9.80;99.90;;;;;;5014036;28;20630;-81
2022/10/06 04:08:34;;;;;;;4.00;2.78;;;9.80;99.90;;;;;;5013317;28;20528;-81
2022/10/06 04:11:07;;;;;;;11.87;2.20;;;9.70;99.90;;;;;;5014102;28;20184;-81
2022/10/06 04:13:34;;;;;;;3.17;2.43;;;9.70;99.90;;;;;;5012230;28;20552;-81
2022/10/06 04:16:12;;;;;;;3.23;2.10;;;9.70;99.90;;;;;;5012540;28;20181;-82
2022/10/06 04:18:37;;;;;;;4.53;3.33;;;9.70;99.90;;;;;;5013832;28;20617;-82
2022/10/06 04:21:04;;;;;;;3.73;1.90;;;9.70;99.90;;;;;;5012355;28;20268;-82
2022/10/06 04:23:30;;;;;;;11.27;4.37;;;9.70;99.90;;;;;;5012202;28;20236;-82
2022/10/06 04:26:01;;;;;;;7.07;3.90;;;9.70;99.90;;;;;;5013365;28;20635;-82
2022/10/06 04:28:27;;;;;;;4.87;2.93;;;9.70;99.90;;;;;;5012338;28;20189;-82
2022/10/06 04:31:00;;;;;;;2.47;1.97;;;9.70;99.90;;;;;;5012318;28;20187;-83
2022/10/06 04:33:26;;;;;;;3.70;2.70;;;9.80;99.90;;;;;;5013354;28;20248;-82
2022/10/06 04:36:00;;;;;;;2.93;2.40;;;9.80;99.90;;;;;;5013199;28;20239;-82
2022/10/06 04:38:28;;;;;;;4.30;3.10;;;9.80;99.90;;;;;;5012409;28;20174;-82
2022/10/06 04:41:02;;;;;;;2.93;2.30;;;9.70;99.90;;;;;;5012549;28;20209;-82
2022/10/06 04:43:27;;;;;;;5.57;3.07;;;9.70;99.90;;;;;;5012462;28;20211;-81
2022/10/06 04:45:57;;;;;;;4.70;2.90;;;9.70;99.90;;;;;;5012470;28;20268;-82
2022/10/06 04:48:24;;;;;;;5.77;2.83;;;9.70;99.90;;;;;;5012518;28;20248;-82
2022/10/06 04:50:58;;;;;;;6.57;2.63;;;9.80;99.90;;;;;;5011543;28;20536;-83
2022/10/06 04:53:24;;;;;;;4.53;3.20;;;9.70;99.90;;;;;;5011877;28;20630;-81
2022/10/06 04:56:06;;;;;;;6.23;3.30;;;9.70;99.90;;;;;;5012306;28;20240;-83
2022/10/06 04:58:34;;;;;;;4.07;3.10;;;9.70;99.90;;;;;;5012237;28;20200;-82
2022/10/06 05:01:00;;;;;;;4.03;2.33;;;9.80;99.90;;;;;;5011544;28;20616;-82
2022/10/06 05:03:30;;;;;;;4.13;2.33;;;9.80;99.90;;;;;;5011462;28;20232;-85
2022/10/06 05:06:07;;;;;;;2.60;2.20;;;9.80;99.90;;;;;;5012789;28;20177;-82
2022/10/06 05:08:34;;;;;;;3.00;2.37;;;9.80;99.90;;;;;;5012165;28;20268;-83
2022/10/06 05:11:05;;;;;;;3.60;2.00;;;9.80;99.90;;;;;;5012591;28;20596;-82
2022/10/06 05:13:31;;;;;;;4.17;2.37;;;9.80;99.90;;;;;;5013057;28;20179;-82
2022/10/06 05:15:59;;;;;;;3.37;2.33;;;9.80;99.90;;;;;;5017693;28;20189;-82
2022/10/06 05:18:26;;;;;;;4.63;2.30;;;9.90;99.90;;;;;;5022144;28;20193;-84
2022/10/06 05:20:59;;;;;;;2.73;1.87;;;9.90;99.90;;;;;;5020463;28;20654;-82
2022/10/06 05:23:26;;;;;;;4.03;1.80;;;10.00;99.90;;;;;;5003603;28;20559;-81
2022/10/06 05:25:54;;;;;;;7.43;2.40;;;10.00;99.90;;;;;;5021719;28;20188;-81
2022/10/06 05:28:20;;;;;;;8.10;3.37;;;10.00;99.90;;;;;;5029423;28;20172;-81
2022/10/06 05:30:58;;;;;;;3.57;2.57;;;10.00;99.90;;;;;;5022014;28;20208;-82
2022/10/06 05:33:25;;;;;;;3.73;2.57;;;10.10;99.90;;;;;;5020319;28;20184;-82
2022/10/06 05:36:00;;;;;;;4.00;2.57;;;10.10;99.90;;;;;;5024798;28;20271;-82
2022/10/06 05:38:27;;;;;;;5.47;2.97;;;10.10;99.90;;;;;;5022557;28;20188;-82
2022/10/06 05:41:01;;;;;;;3.08;2.33;;;10.20;99.90;;;;;;5024474;28;20185;-82
2022/10/06 05:43:27;;;;;;;2.93;2.20;;;10.20;99.90;;;;;;5026106;28;20257;-82
2022/10/06 05:45:55;;;;;;;4.57;2.00;;;10.30;99.90;;;;;;5023471;28;20181;-82
2022/10/06 05:48:21;;;;;;;3.35;2.33;;;10.30;99.90;;;;;;5024173;28;20192;-82
2022/10/06 05:50:47;;;;;;;3.40;2.83;;;10.40;99.90;;;;;;5023666;28;20653;-82
2022/10/06 05:53:13;;;;;;;3.42;1.98;;;10.50;99.90;;;;;;5021676;28;20193;-81
2022/10/06 05:55:39;;;;;;;3.90;2.87;;;10.50;99.90;;;;;;5028897;28;20196;-82
2022/10/06 05:58:04;;;;;;;2.33;1.75;;;10.60;99.90;;;;;;5025007;28;20180;-82
2022/10/06 06:00:30;;;;;;;5.60;2.63;;;10.70;99.90;;;;;;5024847;28;20622;-82
2022/10/06 06:02:56;;;;;;;10.95;3.53;;;10.80;99.90;;;;;;5022533;28;20641;-82
2022/10/06 06:05:21;;;;;;;6.32;3.00;;;10.80;99.90;;;;;;5026941;28;20213;-82
2022/10/06 06:07:47;;;;;;;10.13;2.95;;;10.90;99.90;;;;;;5022485;28;20531;-82
2022/10/06 06:10:13;;;;;;;5.68;2.95;;;11.00;99.90;;;;;;5007619;28;20180;-83
2022/10/06 06:12:38;;;;;;;6.93;3.08;;;11.10;99.90;;;;;;5022337;28;20267;-85
2022/10/06 06:17:48;;;;;;;3.20;2.08;;;11.20;99.90;;;;;;5026883;28;20268;-83
2022/10/06 06:20:14;;;;;;;4.22;2.35;;;11.30;99.90;;;;;;5025362;28;20643;-83
2022/10/06 06:22:40;;;;;;;3.42;2.45;;;11.40;99.90;;;;;;5028680;28;20189;-83
2022/10/06 06:25:06;;;;;;;4.68;2.80;;;11.50;99.90;;;;;;5025720;28;20220;-84
2022/10/06 06:27:31;;;;;;;4.18;2.30;;;11.60;99.90;;;;;;5027926;28;20185;-82
2022/10/06 06:29:57;;;;;;;4.45;2.17;;;11.70;99.90;;;;;;5023807;28;20664;-83
2022/10/06 06:32:23;;;;;;;3.13;2.13;;;11.80;99.90;;;;;;5021748;28;20311;-83
2022/10/06 06:34:51;;;;;;;5.05;2.17;;;11.90;99.90;;;;;;5017576;28;20239;-83
2022/10/06 06:37:17;;;;;;;4.72;2.25;;;12.00;99.90;;;;;;5019367;28;20193;-83
2022/10/06 06:39:42;;;;;;;5.65;2.22;;;12.10;99.90;;;;;;5018771;28;20177;-83
2022/10/06 06:42:08;;;;;;;3.42;2.08;;;12.10;99.90;;;;;;5020391;28;20224;-83
2022/10/06 06:44:34;;;;;;;4.80;2.30;;;12.20;99.90;;;;;;5020048;28;20237;-82
2022/10/06 06:47:00;;;;;;;3.83;2.58;;;12.30;99.90;;;;;;5013075;28;20212;-84
2022/10/06 06:49:25;;;;;;;4.30;2.58;;;12.40;99.90;;;;;;5014317;28;20639;-83
2022/10/06 06:51:53;;;;;;;3.20;2.50;;;12.50;99.90;;;;;;4997766;28;20197;-83
2022/10/06 06:54:18;;;;;;;3.38;2.53;;;12.50;99.90;;;;;;5014229;28;20319;-84
2022/10/06 06:56:45;;;;;;;5.43;2.17;;;12.70;99.90;;;;;;4997056;28;20623;-84
2022/10/06 06:59:12;;;;;;;5.25;3.30;;;12.70;99.90;;;;;;5015105;28;20177;-84
2022/10/06 07:01:44;;;;;;;3.15;2.05;;;12.90;99.90;;;;;;4997353;28;20181;-86
2022/10/06 07:04:11;;;;;;;4.13;2.50;;;13.00;99.90;;;;;;5016190;28;20193;-84
2022/10/06 07:06:39;;;;;;;2.10;1.88;;;13.00;99.90;;;;;;5015908;28;20181;-84
2022/10/06 07:09:05;;;;;;;8.05;2.33;;;13.10;99.90;;;;;;5015779;28;20211;-83
2022/10/06 07:11:40;;;;;;;2.97;1.90;;;13.10;99.90;;;;;;5016554;28;20185;-84
2022/10/06 07:14:08;;;;;;;2.35;1.63;;;13.20;99.90;;;;;;5038811;28;20179;-84
2022/10/06 07:25:05;;;;;;;3.10;2.03;;;13.50;99.90;;;;;;5015942;28;20335;-84
2022/10/06 07:27:35;;;;;;;5.18;2.72;;;13.70;99.90;;;;;;5026876;28;20183;-84
2022/10/06 07:30:02;;;;;;;3.10;1.80;;;13.70;99.90;;;;;;5038237;28;20229;-86
2022/10/06 07:32:30;;;;;;;4.03;2.53;;;13.90;99.90;;;;;;5038186;28;20216;-85
2022/10/06 07:34:59;;;;;;;3.75;2.40;;;13.90;99.90;;;;;;5030572;28;20648;-85
2022/10/06 07:37:27;;;;;;;4.60;2.40;;;14.00;99.90;;;;;;5014761;28;20173;-85
2022/10/06 07:39:53;;;;;;;6.72;2.38;;;14.10;99.90;;;;;;5013094;28;20177;-85
2022/10/06 07:42:19;;;;;;;3.47;2.15;;;14.20;99.90;;;;;;5020352;28;20203;-85
2022/10/06 07:45:37;;;;;;;4.00;1.98;;;14.30;99.90;;;;;;5032998;28;20629;-86
2022/10/06 07:47:34;;;;;;;3.08;2.13;;;14.40;99.90;;;;;;5034088;28;20193;-85
2022/10/06 07:49:59;;;;;;;4.00;2.20;;;14.50;99.90;;;;;;5032298;28;20191;-85
2022/10/06 07:52:27;;;;;;;3.33;2.20;;;14.60;99.90;;;;;;5032696;28;20181;-85
2022/10/06 07:54:54;;;;;;;6.10;2.00;;;14.70;99.90;;;;;;5015957;28;20242;-86
2022/10/06 07:57:20;;;;;;;3.72;2.20;;;14.70;99.90;;;;;;5016163;28;20184;-85
2022/10/06 07:59:46;;;;;;;2.42;2.10;;;14.80;99.90;;;;;;5033455;28;20191;-88
2022/10/06 08:02:12;;;;;;;3.58;2.65;;;14.90;99.90;;;;;;5035483;28;20169;-86
2022/10/06 08:04:37;;;;;;;6.50;2.78;;;15.00;99.90;;;;;;5034856;28;20215;-85
2022/10/06 08:07:06;;;;;;;2.80;2.10;;;15.10;99.90;;;;;;5034000;28;20185;-85
2022/10/06 08:09:32;;;;;;;5.18;2.47;;;15.30;99.90;;;;;;5033195;28;20629;-85
2022/10/06 08:12:31;;;;;;;1.95;1.80;;;15.30;99.90;;;;;;5033031;28;20263;-86
2022/10/06 08:14:43;;;;;;;10.35;2.45;;;15.40;99.90;;;;;;5033502;28;20200;-87
2022/10/06 08:17:09;;;;;;;4.65;2.40;;;15.50;99.90;;;;;;5031972;28;20188;-86
2022/10/06 08:19:34;;;;;;;2.53;1.60;;;15.70;99.90;;;;;;5032241;28;20184;-86
2022/10/06 08:22:00;;;;;;;2.38;1.92;;;15.80;99.90;;;;;;5033202;28;20176;-85
2022/10/06 08:24:25;;;;;;;4.28;2.42;;;16.00;99.90;;;;;;5032326;28;20219;-87
2022/10/06 08:26:51;;;;;;;4.55;2.53;;;16.10;99.90;;;;;;5031739;28;20230;-87
2022/10/06 08:29:17;;;;;;;4.68;2.35;;;16.20;99.90;;;;;;5033711;28;20692;-86
2022/10/06 08:31:42;;;;;;;4.07;2.08;;;16.40;99.90;;;;;;5035448;28;20685;-86
2022/10/06 08:34:08;;;;;;;3.20;2.03;;;16.50;99.90;;;;;;5015673;28;20192;-85
2022/10/06 08:36:34;;;;;;;2.45;1.90;;;16.60;99.90;;;;;;5032580;28;20199;-84
2022/10/06 08:39:00;;;;;;;3.15;2.03;;;16.70;99.90;;;;;;5015900;28;20709;-86
2022/10/06 08:41:39;;;;;;;5.18;1.85;;;16.80;99.90;;;;;;5031872;28;20264;-85
2022/10/06 08:44:06;;;;;;;3.35;2.38;;;16.90;99.90;;;;;;5032880;28;20648;-86
2022/10/06 08:47:01;;;;;;;2.90;1.90;;;17.10;99.90;;;;;;5030605;28;20184;-86
2022/10/06 08:49:35;;;;;;;15.23;2.35;;;17.10;99.90;;;;;;5012605;28;20201;-86
2022/10/06 08:52:13;;;;;;;3.03;1.83;;;17.10;99.90;;;;;;5013680;28;20173;-85
2022/10/06 08:55:05;;;;;;;2.55;1.77;;;17.00;99.90;;;;;;5012373;28;20225;-86
2022/10/06 08:57:52;;;;;;;3.90;1.90;;;17.00;99.90;;;;;;5013868;28;20165;-85
2022/10/06 09:00:17;;;;;;;5.93;1.80;;;16.90;99.90;;;;;;5012195;28;20178;-87
2022/10/06 09:02:46;;;;;;;3.70;1.70;;;16.80;99.90;;;;;;4995635;28;20197;-85
2022/10/06 09:05:18;;;;;;;2.35;1.55;;;16.80;99.90;;;;;;5013359;28;20212;-85
2022/10/06 09:08:15;;;;;;;6.15;2.97;;;16.70;99.90;;;;;;5013606;28;20165;-85
2022/10/06 09:11:02;;;;;;;2.40;1.85;;;16.70;99.90;;;;;;5016492;28;20268;-85
2022/10/06 09:13:37;;;;;;;4.03;1.95;;;16.70;99.90;;;;;;5015828;28;20184;-88
2022/10/06 09:16:07;;;;;;;3.58;1.83;;;16.70;99.90;;;;;;5015778;28;20184;-85
2022/10/06 09:18:44;;;;;;;3.15;2.00;;;16.70;99.90;;;;;;5017367;28;20165;-85
2022/10/06 09:21:16;;;;;;;1.80;1.42;;;16.70;99.90;;;;;;5015246;28;20177;-85
2022/10/06 09:23:48;;;;;;;3.50;2.42;;;16.80;99.90;;;;;;5021090;28;20192;-85
2022/10/06 09:26:14;;;;;;;2.42;1.83;;;16.90;99.90;;;;;;5026028;28;20186;-84
2022/10/06 09:28:40;;;;;;;3.85;2.13;;;17.00;99.90;;;;;;5028484;28;20188;-84
2022/10/06 09:31:17;;;;;;;4.28;1.92;;;17.10;99.90;;;;;;5003282;28;20715;-84
2022/10/06 09:33:43;;;;;;;3.40;2.40;;;17.10;99.90;;;;;;5015987;28;20271;-85
2022/10/06 09:36:09;;;;;;;2.65;2.00;;;17.10;99.90;;;;;;5015876;28;20191;-84
2022/10/06 09:38:52;;;;;;;2.33;1.75;;;17.10;99.90;;;;;;5016686;28;20260;-85
2022/10/06 09:41:44;;;;;;;2.15;1.83;;;17.20;99.90;;;;;;5016440;28;20524;-85
2022/10/06 09:44:25;;;;;;;3.55;2.30;;;17.20;99.90;;;;;;5015345;28;20260;-90
2022/10/06 09:46:51;;;;;;;2.65;2.17;;;17.30;99.90;;;;;;5016819;28;20193;-86
2022/10/06 09:49:30;;;;;;;8.45;3.13;;;17.30;99.90;;;;;;5016470;28;20182;-85
2022/10/06 09:52:00;;;;;;;2.45;1.75;;;17.30;99.90;;;;;;5016504;28;20165;-85
2022/10/06 09:54:27;;;;;;;2.38;1.90;;;17.30;99.90;;;;;;5016197;28;20181;-85
2022/10/06 09:56:54;;;;;;;2.38;1.50;;;17.40;99.90;;;;;;5016805;28;20177;-85
2022/10/06 09:59:24;;;;;;;3.78;2.20;;;17.50;99.90;;;;;;5015279;28;20251;-85
2022/10/06 10:01:54;;;;;;;2.53;1.67;;;17.50;99.90;;;;;;5016090;28;20177;-86
2022/10/06 10:04:31;;;;;;;2.05;1.75;;;17.50;99.90;;;;;;5015977;28;20197;-85
2022/10/06 10:07:25;;;;;;;3.15;1.83;;;17.50;99.90;;;;;;5016256;28;20196;-85
2022/10/06 10:09:52;;;;;;;2.75;2.10;;;17.50;99.90;;;;;;5015247;28;20235;-85
2022/10/06 10:12:26;;;;;;;6.38;2.33;;;17.50;99.90;;;;;;5015623;28;20208;-86
2022/10/06 10:15:18;;;;;;;8.75;2.17;;;17.60;99.90;;;;;;5014979;28;20181;-86
2022/10/06 10:17:49;;;;;;;3.15;1.60;;;17.60;99.90;;;;;;5013537;28;20255;-86
2022/10/06 10:20:23;;;;;;;3.53;2.20;;;17.70;99.90;;;;;;5032475;28;20184;-85
2022/10/06 10:22:51;;;;;;;5.10;2.30;;;17.70;99.90;;;;;;5034838;28;20694;-85
2022/10/06 10:25:23;;;;;;;2.55;1.92;;;17.70;99.90;;;;;;5035530;28;20228;-85
2022/10/06 10:28:14;;;;;;;2.50;1.65;;;17.80;99.90;;;;;;5035756;28;20268;-85
2022/10/06 10:31:19;;;;;;;3.85;2.05;;;18.00;99.90;;;;;;5035589;28;20622;-84
2022/10/06 10:33:53;;;;;;;5.22;2.03;;;18.40;99.90;;;;;;5033109;28;20215;-85
2022/10/06 10:36:27;;;;;;;4.15;2.05;;;18.70;99.90;;;;;;5035252;28;20161;-85
2022/10/06 10:38:54;;;;;;;3.65;2.20;;;18.90;99.90;;;;;;5035898;28;20514;-86
2022/10/06 10:41:27;;;;;;;1.92;1.65;;;18.90;99.90;;;;;;5035071;28;20177;-85
2022/10/06 10:44:05;;;;;;;2.42;1.88;;;19.00;99.90;;;;;;5035294;28;20727;-86
2022/10/06 10:46:35;;;;;;;4.53;1.83;;;19.20;99.90;;;;;;5033835;28;20190;-84
2022/10/06 10:49:14;;;;;;;2.10;1.63;;;19.10;99.90;;;;;;5035053;28;20205;-86
2022/10/06 10:51:44;;;;;;;2.63;1.70;;;19.10;99.90;;;;;;5035428;28;20629;-85
2022/10/06 10:54:14;;;;;;;3.00;1.60;;;19.20;99.90;;;;;;5035061;28;20624;-86
2022/10/06 10:56:42;;;;;;;3.42;1.90;;;19.20;99.90;;;;;;5035066;28;20177;-87
2022/10/06 10:59:46;;;;;;;3.17;1.98;;;19.20;99.90;;;;;;5035543;28;20185;-86
2022/10/06 11:02:18;;;;;;;1.98;1.45;;;19.30;99.90;;;;;;5013014;28;20197;-87
2022/10/06 11:04:46;;;;;;;4.95;1.85;;;19.40;99.90;;;;;;5013800;28;20221;-87
2022/10/06 11:07:28;;;;;;;1.58;1.30;;;19.40;99.90;;;;;;5014739;28;20227;-85
2022/10/06 11:10:04;;;;;;;1.77;1.52;;;19.40;99.90;;;;;;5015137;28;20169;-86
2022/10/06 11:12:40;;;;;;;1.95;1.42;;;19.40;99.90;;;;;;5020236;28;20165;-86
2022/10/06 11:16:03;;;;;;;2.45;1.77;;;19.30;99.90;;;;;;5020653;28;20189;-86
2022/10/06 11:18:42;;;;;;;2.28;1.58;;;19.30;99.90;;;;;;4973409;28;20663;-87
2022/10/06 11:21:22;;;;;;;2.08;1.23;;;19.30;99.90;;;;;;4973643;28;20249;-87
2022/10/06 11:24:30;;;;;;;2.70;1.45;;;19.30;99.90;;;;;;5000653;28;20217;-88
2022/10/06 11:27:17;;;;;;;4.78;1.60;;;19.20;99.90;;;;;;5013404;28;20184;-87
2022/10/06 11:30:01;;;;;;;4.10;1.60;;;19.30;99.90;;;;;;5014669;28;20271;-88
2022/10/06 11:32:35;;;;;;;4.22;1.55;;;19.30;99.90;;;;;;5013246;28;20220;-89
2022/10/06 11:35:05;;;;;;;2.45;1.52;;;19.20;99.90;;;;;;5033713;28;20183;-88
2022/10/06 11:37:37;;;;;;;2.90;2.10;;;19.20;99.90;;;;;;5032581;28;20180;-87
2022/10/06 11:40:22;;;;;;;1.60;1.40;;;19.20;99.90;;;;;;5034190;28;20680;-87
2022/10/06 11:43:20;;;;;;;2.20;1.40;;;19.20;99.90;;;;;;5034475;28;20176;-88
2022/10/06 11:45:58;;;;;;;1.67;1.52;;;19.30;99.90;;;;;;5025528;28;20200;-87
2022/10/06 11:48:25;;;;;;;10.15;3.22;;;19.60;99.90;;;;;;5032664;28;20243;-87
2022/10/06 11:50:54;;;;;;;2.50;1.52;;;19.60;99.90;;;;;;5034025;28;20180;-85
2022/10/06 11:53:35;;;;;;;2.25;1.58;;;19.50;99.90;;;;;;5035058;28;20263;-90
2022/10/06 11:56:16;;;;;;;2.00;1.67;;;19.40;99.90;;;;;;5034519;28;20160;-87
2022/10/06 11:58:54;;;;;;;1.63;1.38;;;19.20;99.90;;;;;;5033476;28;20177;-86
2022/10/06 12:01:32;;;;;;;3.80;1.63;;;19.20;99.90;;;;;;5032558;28;20202;-86
2022/10/06 12:04:07;;;;;;;2.45;1.85;;;19.10;99.90;;;;;;5032315;28;20208;-86
2022/10/06 12:06:44;;;;;;;7.57;1.67;;;19.10;99.90;;;;;;5032562;28;20205;-85
2022/10/06 12:09:31;;;;;;;4.93;1.48;;;19.20;99.90;;;;;;5033180;28;20176;-85
2022/10/06 12:12:17;;;;;;;2.35;2.15;;;19.20;99.90;;;;;;5033831;28;20713;-85
2022/10/06 12:14:49;;;;;;;3.55;2.17;;;19.20;99.90;;;;;;5028705;28;20176;-85
2022/10/06 12:17:24;;;;;;;1.55;1.42;;;19.20;99.90;;;;;;5021171;28;20181;-84
2022/10/06 12:20:00;;;;;;;3.45;1.35;;;19.10;99.90;;;;;;5024315;28;20183;-86
2022/10/06 12:22:31;;;;;;;2.30;1.63;;;19.10;99.90;;;;;;5023371;28;20254;-85
2022/10/06 12:25:10;;;;;;;2.22;1.63;;;19.00;99.90;;;;;;5026651;28;20196;-85
2022/10/06 12:33:38;;;;;;;2.95;1.55;;;19.10;99.90;;;;;;5127534;22;20259;-85
2022/10/06 12:36:22;;;;;;;2.67;1.52;;;19.20;99.90;;;;;;5014938;28;20166;-85
2022/10/06 12:39:05;;;;;;;2.55;1.60;;;19.20;99.90;;;;;;5014763;28;20219;-86
2022/10/06 12:42:06;;;;;;;2.47;1.50;;;19.20;99.90;;;;;;5018159;28;20193;-85
2022/10/06 12:44:41;;;;;;;1.48;1.38;;;19.20;99.90;;;;;;5021624;28;20215;-86
2022/10/06 12:47:33;;;;;;;1.63;1.38;;;19.20;99.90;;;;;;5017406;28;20685;-86
2022/10/06 12:50:13;;;;;;;1.40;1.30;;;19.40;99.90;;;;;;5015729;28;20196;-86
2022/10/06 12:52:51;;;;;;;2.65;1.80;;;19.50;99.90;;;;;;5017880;28;20176;-85
2022/10/06 12:55:26;;;;;;;1.63;1.30;;;19.60;99.90;;;;;;5016837;28;20264;-85
2022/10/06 12:57:53;;;;;;;2.38;1.20;;;19.40;99.90;;;;;;5017888;28;20173;-85
2022/10/06 13:00:42;;;;;;;1.80;1.42;;;19.30;99.90;;;;;;5016376;28;20196;-85
2022/10/06 13:03:23;;;;;;;1.98;1.30;;;19.20;99.90;;;;;;5012224;28;20193;-85
2022/10/06 13:06:10;;;;;;;2.33;1.63;;;19.20;99.90;;;;;;5020069;28;20178;-86
2022/10/06 13:08:37;;;;;;;2.33;1.27;;;19.20;99.90;;;;;;5024845;28;20157;-86
2022/10/06 13:11:33;;;;;;;1.40;1.15;;;19.10;99.90;;;;;;5027496;28;20185;-85
2022/10/06 13:14:28;;;;;;;1.95;1.40;;;19.10;99.90;;;;;;5017434;28;20197;-84
2022/10/06 13:16:53;;;;;;;2.63;1.52;;;18.90;99.90;;;;;;5014205;28;20232;-84
2022/10/06 13:19:24;;;;;;;4.03;1.60;;;18.90;99.90;;;;;;5037510;28;20181;-84
2022/10/06 13:21:50;;;;;;;2.22;1.55;;;18.80;99.90;;;;;;5040265;28;20216;-84
2022/10/06 13:24:24;;;;;;;6.30;2.22;;;18.70;99.90;;;;;;5037272;28;20253;-85
2022/10/06 13:26:50;;;;;;;4.32;1.38;;;18.70;99.90;;;;;;5037573;28;20212;-86